EDDB/SXF METAR and TAF weather

Enter ICAO airport designator
Station Type Date Time Source
EDDB METAR 2020/07/15 00:50 UTC NOAA

EDDB 150050Z 34010KT CAVOK 18/11 Q1011 NOSIG


Station Type Date Time Source
EDDB Decoded METAR 2020/07/15 00:50 UTC NOAA

Berlin-Schoenefeld, Germany (EDDB) 52-23N 013-31E 50M
Jul 14, 2020 - 08:50 PM EDT / 2020.07.15 0050 UTC
Wind: from the NNW (340 degrees) at 12 MPH (10 KT):0
Visibility: greater than 7 mile(s):0
Temperature: 64 F (18 C)
Dew Point: 51 F (11 C)
Relative Humidity: 63%
Pressure (altimeter): 29.85 in. Hg (1011 hPa)
ob: EDDB 150050Z 34010KT CAVOK 18/11 Q1011 NOSIG
cycle: 1

Station Type Date Time Source
EDDB TAF 2020/07/14 18:27 UTC NOAA

TAF TAF EDDB 141700Z 1418/1518 18004KT 9999 SCT030
BECMG 1422/1501 30006KT PROB30
TEMPO 1507/1514 4500 RA BKN009

Example: see airport list